Campanya meteocatpedra

Dades EMA Torres de Segre

?
?
Resum diari 21:00 TU
Dades diàries de l'estació meteorològica
Temperatura mitjana 26.5 °C
Temperatura màxima 33.4 °C 15:14 TU
Temperatura mínima 19.8 °C 4:16 TU
Humitat relativa mitjana 62%
Precipitació acumulada 0.0 mm
Ratxa màxima del vent (2 m) 18.7 km/h - 311º 13:01 TU
Irradiació solar global 22.3 MJ/m2

El tram horari està expressat en Temps Universal (TU). Cal sumar una hora en horari d'hivern i dues en horari d'estiu per passar a l'hora oficial.

Torres de Segre

Metadades estació meteorol´gica
Municipi Torres de Segre
Comarca Segrià
Altitud 215 m
Data alta 02.07.2007
Estat actual Operativa
Dades de període
Període
TU
TM
°C
TX
°C
TN
°C
HRM
%
PPT
mm
VVM (2 m)
km/h
DVM (2 m)
graus
VVX (2 m)
km/h
RS
W/m2
00:00 - 00:30 22.6 23.2 21.0 68 0.0 3.2 283 6.5 0
00:30 - 01:00 21.2 21.4 21.0 78 0.0 1.4 6 4.3 0
01:00 - 01:30 20.9 21.1 20.8 80 0.0 3.2 11 5.0 0
01:30 - 02:00 21.0 21.1 20.8 81 0.0 2.5 16 6.8 0
02:00 - 02:30 20.7 21.0 20.5 83 0.0 1.4 326 3.2 0
02:30 - 03:00 20.9 21.2 20.6 82 0.0 1.4 307 4.3 0
03:00 - 03:30 20.6 20.7 20.5 81 0.0 2.9 342 5.8 0
03:30 - 04:00 20.7 21.0 20.6 79 0.0 4.0 11 7.2 0
04:00 - 04:30 20.3 21.0 19.8 78 0.0 3.2 130 7.6 0
04:30 - 05:00 20.1 20.4 19.9 80 0.0 3.2 122 6.1 0
05:00 - 05:30 20.7 21.1 20.4 77 0.0 1.8 129 4.0 8
05:30 - 06:00 21.0 21.4 20.8 76 0.0 1.8 153 4.7 38
06:00 - 06:30 21.7 22.0 21.4 71 0.0 1.8 11 4.0 66
06:30 - 07:00 22.3 23.0 21.8 67 0.0 2.5 24 6.1 129
07:00 - 07:30 23.1 23.9 22.5 69 0.0 4.0 222 8.6 185
07:30 - 08:00 23.9 24.9 22.8 69 0.0 1.4 240 5.8 278
08:00 - 08:30 24.4 24.7 24.2 71 0.0 4.0 224 10.8 367
08:30 - 09:00 25.0 25.6 24.5 70 0.0 5.4 279 10.4 458
09:00 - 09:30 25.8 26.1 25.2 69 0.0 4.7 286 11.5 524
09:30 - 10:00 26.3 27.3 25.6 66 0.0 5.4 277 13.0 595
10:00 - 10:30 27.7 28.2 27.2 62 0.0 5.0 287 11.9 678
10:30 - 11:00 28.2 28.6 27.6 60 0.0 6.5 269 12.6 734
11:00 - 11:30 29.0 30.5 28.0 57 0.0 6.1 308 13.3 811
11:30 - 12:00 29.9 30.6 29.6 54 0.0 7.6 286 16.9 847
12:00 - 12:30 30.6 31.1 29.6 52 0.0 7.2 293 15.5 845
12:30 - 13:00 31.0 31.8 30.5 50 0.0 7.9 308 16.2 835
13:00 - 13:30 31.7 32.6 31.0 47 0.0 7.2 293 18.7 809
13:30 - 14:00 32.3 32.7 31.6 44 0.0 7.2 284 14.4 758
14:00 - 14:30 32.3 32.6 31.7 44 0.0 7.2 308 14.0 720
14:30 - 15:00 32.5 33.0 32.1 43 0.0 6.8 306 14.8 567
15:00 - 15:30 32.7 33.4 32.0 43 0.0 5.4 327 13.7 496
15:30 - 16:00 32.7 33.0 32.2 44 0.0 5.8 347 12.2 497
16:00 - 16:30 32.7 32.9 32.4 43 0.0 7.6 342 13.3 415
16:30 - 17:00 32.5 32.7 32.3 44 0.0 6.8 340 14.8 321
17:00 - 17:30 32.2 32.6 31.8 45 0.0 6.5 336 12.6 226
17:30 - 18:00 31.4 31.9 30.8 49 0.0 4.7 353 9.0 132
18:00 - 18:30 30.6 30.8 30.2 50 0.0 2.5 347 7.9 56
18:30 - 19:00 29.5 30.0 29.1 53 0.0 5.0 174 11.5 11
19:00 - 19:30 28.5 29.1 28.1 57 0.0 7.9 171 13.0 0
19:30 - 20:00 27.8 28.0 27.5 58 0.0 9.4 172 14.8 0
20:00 - 20:30 27.1 27.5 26.9 59 0.0 9.4 165 14.4 0
20:30 - 21:00 26.5 26.8 26.3 61 0.0 9.4 162 15.5 0
21:00 - 21:30 26.3 26.4 26.1 62 0.0 12.2 166 18.4 0

Les dades en taronja només han passat un control de qualitat automàtic. Resta pendent la seva validació definitiva.